createdAt,value
2018-07-31T00:00:35.228Z,100558.47
2018-07-31T00:01:38.804Z,100554.88
2018-07-31T00:02:42.193Z,100558.67
2018-07-31T00:03:45.573Z,100558.47
2018-07-31T00:04:48.934Z,100555.08
2018-07-31T00:05:52.329Z,100554.28
2018-07-31T00:06:55.729Z,100555.08
2018-07-31T00:07:59.140Z,100557.88
2018-07-31T00:09:02.595Z,100549.88
2018-07-31T00:10:06.560Z,100551.28
2018-07-31T00:11:10.000Z,100549.88
2018-07-31T00:12:13.454Z,100548.48
2018-07-31T00:13:16.991Z,100550.09
2018-07-31T00:14:20.373Z,100555.08
2018-07-31T00:15:23.776Z,100552.88
2018-07-31T00:16:27.173Z,100552.88
2018-07-31T00:17:30.570Z,100553.48
2018-07-31T00:18:33.960Z,100551.28
2018-07-31T00:19:37.365Z,100556.06
2018-07-31T00:20:40.767Z,100551.28
2018-07-31T00:21:44.160Z,100556.87
2018-07-31T00:22:47.602Z,100557.67
2018-07-31T00:23:50.969Z,100557.67
2018-07-31T00:24:54.767Z,100552.67
2018-07-31T00:25:58.173Z,100555.27
2018-07-31T00:27:01.589Z,100559.46
2018-07-31T00:28:05.041Z,100560.26
2018-07-31T00:29:08.464Z,100552.47
2018-07-31T00:30:11.879Z,100547.69
2018-07-31T00:31:15.256Z,100545.48
2018-07-31T00:32:18.656Z,100548.48
2018-07-31T00:33:22.069Z,100550.48
2018-07-31T00:34:25.484Z,100542.70
2018-07-31T00:35:28.891Z,100550.48
2018-07-31T00:36:32.306Z,100546.89
2018-07-31T00:37:35.688Z,100551.08
2018-07-31T00:38:39.170Z,100549.68
2018-07-31T00:39:42.598Z,100546.29
2018-07-31T00:40:46.022Z,100551.88
2018-07-31T00:41:49.420Z,100552.67
2018-07-31T00:42:52.808Z,100549.88
2018-07-31T00:43:56.248Z,100549.88
2018-07-31T00:44:59.637Z,100547.09
2018-07-31T00:46:03.013Z,100544.69
2018-07-31T00:47:06.400Z,100547.69
2018-07-31T00:48:09.768Z,100542.49
2018-07-31T00:49:13.230Z,100548.28
2018-07-31T00:50:16.608Z,100539.50
2018-07-31T00:51:20.008Z,100542.49
2018-07-31T00:52:23.400Z,100543.30
2018-07-31T00:53:26.808Z,100543.30
2018-07-31T00:54:30.220Z,100539.70
2018-07-31T00:55:33.627Z,100538.10
2018-07-31T00:56:36.989Z,100545.28
2018-07-31T00:57:40.430Z,100539.50
2018-07-31T00:58:43.794Z,100541.70
2018-07-31T00:59:47.227Z,100541.09
2018-07-31T01:00:50.625Z,100536.11
2018-07-31T01:01:54.018Z,100538.90
2018-07-31T01:02:57.405Z,100536.91
2018-07-31T01:04:00.792Z,100540.30
2018-07-31T01:05:04.302Z,100538.30
2018-07-31T01:06:07.700Z,100536.11
2018-07-31T01:07:11.126Z,100539.50
2018-07-31T01:08:14.725Z,100536.70
2018-07-31T01:09:18.116Z,100533.31
2018-07-31T01:10:21.528Z,100538.10
2018-07-31T01:11:24.961Z,100542.09
2018-07-31T01:12:28.345Z,100541.49
2018-07-31T01:13:31.773Z,100542.89
2018-07-31T01:14:35.183Z,100542.29
2018-07-31T01:15:38.732Z,100546.48
2018-07-31T01:16:42.382Z,100545.09
2018-07-31T01:17:45.812Z,100549.88
2018-07-31T01:18:49.221Z,100552.07
2018-07-31T01:19:52.615Z,100545.09
2018-07-31T01:20:56.028Z,100552.07
2018-07-31T01:21:59.437Z,100553.27
2018-07-31T01:23:02.832Z,100547.67
2018-07-31T01:24:06.868Z,100545.09
2018-07-31T01:25:10.359Z,100542.09
2018-07-31T01:26:13.768Z,100539.30
2018-07-31T01:27:17.160Z,100541.89
2018-07-31T01:28:20.546Z,100542.69
2018-07-31T01:29:23.956Z,100540.69
2018-07-31T01:30:27.348Z,100544.88
2018-07-31T01:31:30.828Z,100542.09
2018-07-31T01:32:34.220Z,100540.69
2018-07-31T01:33:37.604Z,100542.69
2018-07-31T01:34:41.022Z,100539.89
2018-07-31T01:35:44.428Z,100543.48
2018-07-31T01:36:47.844Z,100543.28
2018-07-31T01:37:51.390Z,100541.09
2018-07-31T01:38:54.785Z,100539.89
2018-07-31T01:39:58.186Z,100536.69
2018-07-31T01:41:01.612Z,100539.09
2018-07-31T01:42:05.056Z,100536.30
2018-07-31T01:43:08.526Z,100538.09
2018-07-31T01:44:11.928Z,100534.50
2018-07-31T01:45:15.325Z,100533.90
2018-07-31T01:46:18.704Z,100536.69
2018-07-31T01:47:22.112Z,100533.90
2018-07-31T01:48:25.526Z,100539.09
2018-07-31T01:49:28.913Z,100534.10
2018-07-31T01:50:32.315Z,100534.91
2018-07-31T01:51:35.764Z,100540.48
2018-07-31T01:52:39.181Z,100542.09
2018-07-31T01:53:42.568Z,100534.91
2018-07-31T01:54:46.180Z,100541.28
2018-07-31T01:55:49.568Z,100534.30
2018-07-31T01:56:52.940Z,100540.69
2018-07-31T01:57:56.336Z,100544.28
2018-07-31T01:58:59.739Z,100542.89
2018-07-31T02:00:03.255Z,100538.49
2018-07-31T02:01:06.695Z,100542.09
2018-07-31T02:02:10.122Z,100537.89
2018-07-31T02:03:13.576Z,100534.91
2018-07-31T02:04:16.980Z,100539.89
2018-07-31T02:05:20.378Z,100540.69
2018-07-31T02:06:26.630Z,100539.50
2018-07-31T02:07:30.041Z,100537.30
2018-07-31T02:08:33.425Z,100539.30
2018-07-31T02:09:36.804Z,100538.30
2018-07-31T02:10:40.296Z,100536.91
2018-07-31T02:11:43.692Z,100536.11
2018-07-31T02:12:47.077Z,100541.09
2018-07-31T02:13:50.736Z,100542.70
2018-07-31T02:14:54.120Z,100534.91
2018-07-31T02:15:57.512Z,100538.30
2018-07-31T02:17:00.906Z,100538.30
2018-07-31T02:18:04.297Z,100536.31
2018-07-31T02:19:07.714Z,100539.10
2018-07-31T02:20:11.125Z,100539.70
2018-07-31T02:21:14.690Z,100545.48
2018-07-31T02:22:18.077Z,100545.48
2018-07-31T02:23:21.486Z,100549.88
2018-07-31T02:24:24.877Z,100539.91
2018-07-31T02:25:28.252Z,100547.69
2018-07-31T02:26:31.625Z,100544.89
2018-07-31T02:27:34.997Z,100539.30
2018-07-31T02:28:38.481Z,100547.09
2018-07-31T02:29:47.188Z,100538.70
2018-07-31T02:30:50.597Z,100544.30
2018-07-31T02:31:53.980Z,100545.89
2018-07-31T02:32:57.354Z,100544.30
2018-07-31T02:34:00.737Z,100548.69
2018-07-31T02:35:04.472Z,100549.28
2018-07-31T02:36:07.857Z,100548.09
2018-07-31T02:37:11.269Z,100539.71
2018-07-31T02:38:14.681Z,100550.89
2018-07-31T02:39:18.064Z,100548.48
2018-07-31T02:40:21.516Z,100547.30
2018-07-31T02:41:24.896Z,100551.69
2018-07-31T02:42:28.287Z,100548.69
2018-07-31T02:43:31.684Z,100547.89
2018-07-31T02:44:35.082Z,100551.69
2018-07-31T02:45:38.515Z,100545.09
2018-07-31T02:46:41.953Z,100543.10
2018-07-31T02:47:45.720Z,100542.30
2018-07-31T02:48:49.288Z,100541.50
2018-07-31T02:49:52.660Z,100544.50
2018-07-31T02:50:56.074Z,100549.48
2018-07-31T02:51:59.493Z,100545.89
2018-07-31T02:53:02.936Z,100542.90
2018-07-31T02:54:06.482Z,100547.30
2018-07-31T02:55:10.892Z,100542.90
2018-07-31T02:56:14.304Z,100539.51
2018-07-31T02:57:17.709Z,100536.72
2018-07-31T02:58:21.143Z,100539.51
2018-07-31T02:59:24.501Z,100541.70
2018-07-31T03:00:27.885Z,100540.91
2018-07-31T03:01:31.297Z,100540.91
2018-07-31T03:02:34.712Z,100541.50
2018-07-31T03:03:38.133Z,100544.30
2018-07-31T03:04:41.579Z,100544.30
2018-07-31T03:05:44.960Z,100545.69
2018-07-31T03:06:48.385Z,100542.09
2018-07-31T03:07:51.775Z,100548.28
2018-07-31T03:08:55.164Z,100532.92
2018-07-31T03:09:58.814Z,100542.09
2018-07-31T03:11:02.224Z,100539.30
2018-07-31T03:12:05.702Z,100537.11
2018-07-31T03:13:09.116Z,100534.31
2018-07-31T03:14:12.530Z,100535.11
2018-07-31T03:15:15.948Z,100536.31
2018-07-31T03:16:19.356Z,100539.10
2018-07-31T03:17:22.773Z,100538.30
2018-07-31T03:18:26.175Z,100545.48
2018-07-31T03:19:29.554Z,100548.28
2018-07-31T03:20:32.940Z,100546.89
2018-07-31T03:21:36.327Z,100549.88
2018-07-31T03:22:39.812Z,100539.10
2018-07-31T03:23:43.400Z,100549.88
2018-07-31T03:24:46.781Z,100546.89
2018-07-31T03:25:50.211Z,100549.68
2018-07-31T03:26:53.617Z,100549.88
2018-07-31T03:27:57.006Z,100553.88
2018-07-31T03:29:00.385Z,100546.89
2018-07-31T03:30:03.839Z,100549.68
2018-07-31T03:31:07.317Z,100547.69
2018-07-31T03:32:10.701Z,100551.28
2018-07-31T03:33:14.106Z,100548.88
2018-07-31T03:34:17.473Z,100549.28
2018-07-31T03:35:20.842Z,100549.48
2018-07-31T03:36:24.215Z,100554.67
2018-07-31T03:37:27.601Z,100550.88
2018-07-31T03:38:30.977Z,100550.88
2018-07-31T03:39:34.367Z,100549.48
2018-07-31T03:40:37.726Z,100550.67
2018-07-31T03:41:41.159Z,100556.86
2018-07-31T03:42:44.653Z,100550.88
2018-07-31T03:43:48.063Z,100547.08
2018-07-31T03:44:51.537Z,100550.67
2018-07-31T03:45:54.935Z,100547.67
2018-07-31T03:46:58.305Z,100549.88
2018-07-31T03:48:01.717Z,100550.47
2018-07-31T03:49:05.173Z,100549.28
2018-07-31T03:50:08.663Z,100547.08
2018-07-31T03:51:12.011Z,100550.47
2018-07-31T03:52:15.422Z,100554.66
2018-07-31T03:53:18.828Z,100554.86
2018-07-31T03:54:22.221Z,100552.07
2018-07-31T03:55:25.642Z,100549.48
2018-07-31T03:56:29.158Z,100550.67
2018-07-31T03:57:32.587Z,100556.26
2018-07-31T03:58:35.946Z,100559.85
2018-07-31T03:59:39.342Z,100559.05
2018-07-31T04:00:42.718Z,100556.46
2018-07-31T04:01:46.205Z,100554.27
2018-07-31T04:02:49.588Z,100552.47
2018-07-31T04:03:53.257Z,100552.87
2018-07-31T04:04:56.693Z,100557.86
2018-07-31T04:06:00.080Z,100555.86
2018-07-31T04:07:03.500Z,100558.06
2018-07-31T04:08:06.898Z,100555.06
2018-07-31T04:09:12.130Z,100553.67
2018-07-31T04:10:15.544Z,100550.88
2018-07-31T04:11:18.922Z,100546.48
2018-07-31T04:12:22.281Z,100549.28
2018-07-31T04:13:25.667Z,100556.46
2018-07-31T04:14:29.051Z,100554.27
2018-07-31T04:15:32.463Z,100556.46
2018-07-31T04:16:35.858Z,100555.06
2018-07-31T04:17:39.264Z,100560.06
2018-07-31T04:18:42.638Z,100559.05
2018-07-31T04:19:46.008Z,100558.45
2018-07-31T04:20:49.424Z,100560.66
2018-07-31T04:21:52.850Z,100559.25
2018-07-31T04:22:56.241Z,100558.45
2018-07-31T04:23:59.675Z,100565.44
2018-07-31T04:25:03.081Z,100563.25
2018-07-31T04:26:06.532Z,100563.84
2018-07-31T04:27:09.959Z,100560.25
2018-07-31T04:28:13.382Z,100561.84
2018-07-31T04:29:16.768Z,100561.05
2018-07-31T04:30:20.154Z,100568.63
2018-07-31T04:31:23.562Z,100568.03
2018-07-31T04:32:26.948Z,100568.23
2018-07-31T04:33:30.369Z,100571.42
2018-07-31T04:34:33.792Z,100566.84
2018-07-31T04:35:37.150Z,100571.83
2018-07-31T04:36:40.561Z,100571.42
2018-07-31T04:37:43.988Z,100569.42
2018-07-31T04:38:47.353Z,100572.77
2018-07-31T04:39:51.133Z,100574.74
2018-07-31T04:40:54.517Z,100571.92
2018-07-31T04:41:57.925Z,100576.05
2018-07-31T04:43:01.330Z,100571.83
2018-07-31T04:44:04.829Z,100571.73
2018-07-31T04:45:09.808Z,100569.29
2018-07-31T04:46:13.257Z,100565.83
2018-07-31T04:47:16.689Z,100575.56
2018-07-31T04:48:20.117Z,100571.69
2018-07-31T04:49:23.477Z,100574.25
2018-07-31T04:50:26.943Z,100570.98
2018-07-31T04:51:30.326Z,100575.15
2018-07-31T04:52:33.742Z,100570.14
2018-07-31T04:53:37.162Z,100572.52
2018-07-31T04:54:40.564Z,100569.49
2018-07-31T04:55:43.948Z,100577.06
2018-07-31T04:56:47.392Z,100571.00
2018-07-31T04:57:50.776Z,100566.97
2018-07-31T04:58:54.594Z,100564.28
2018-07-31T04:59:58.117Z,100568.43
2018-07-31T05:01:01.490Z,100568.22
2018-07-31T05:02:04.873Z,100562.05
2018-07-31T05:03:08.298Z,100566.83
2018-07-31T05:04:11.676Z,100568.02
2018-07-31T05:05:15.084Z,100570.18
2018-07-31T05:06:18.478Z,100572.34
2018-07-31T05:07:21.853Z,100572.49
2018-07-31T05:08:25.267Z,100577.47
2018-07-31T05:09:28.668Z,100573.27
2018-07-31T05:10:32.063Z,100582.42
2018-07-31T05:11:35.461Z,100582.22
2018-07-31T05:12:39.109Z,100582.60
2018-07-31T05:13:42.628Z,100589.36
2018-07-31T05:14:46.052Z,100591.94
2018-07-31T05:15:49.440Z,100584.55
2018-07-31T05:16:52.848Z,100590.30
2018-07-31T05:17:56.263Z,100588.05
2018-07-31T05:18:59.682Z,100589.02
2018-07-31T05:20:03.272Z,100591.81
2018-07-31T05:21:06.951Z,100593.20
2018-07-31T05:22:10.406Z,100591.22
2018-07-31T05:23:13.799Z,100585.81
2018-07-31T05:24:17.189Z,100586.79
2018-07-31T05:25:20.667Z,100587.98
2018-07-31T05:26:24.012Z,100589.16
2018-07-31T05:27:27.412Z,100584.35
2018-07-31T05:28:30.871Z,100584.94
2018-07-31T05:29:34.294Z,100583.90
2018-07-31T05:30:37.733Z,100585.82
2018-07-31T05:31:41.134Z,100588.81
2018-07-31T05:32:45.444Z,100585.57
2018-07-31T05:33:49.168Z,100587.34
2018-07-31T05:34:52.816Z,100592.92
2018-07-31T05:35:56.416Z,100594.10
2018-07-31T05:36:59.843Z,100591.38
2018-07-31T05:38:03.607Z,100592.31
2018-07-31T05:39:10.057Z,100591.90
2018-07-31T05:40:13.701Z,100588.23
2018-07-31T05:41:17.304Z,100594.02
2018-07-31T05:42:20.770Z,100595.63
2018-07-31T05:43:24.299Z,100597.89
2018-07-31T05:44:27.904Z,100603.67
2018-07-31T05:45:31.715Z,100606.13
2018-07-31T05:46:35.364Z,100605.74
2018-07-31T05:47:39.053Z,100606.88
2018-07-31T05:48:42.556Z,100605.28
2018-07-31T05:49:46.138Z,100613.64
2018-07-31T05:50:49.687Z,100612.25
2018-07-31T05:51:53.349Z,100614.06
2018-07-31T05:52:56.840Z,100608.53
2018-07-31T05:54:00.226Z,100612.58
2018-07-31T05:55:03.676Z,100611.91
2018-07-31T05:56:07.136Z,100614.48
2018-07-31T05:57:10.521Z,100608.28
2018-07-31T05:58:14.032Z,100613.00
2018-07-31T05:59:17.407Z,100614.61
2018-07-31T06:00:20.833Z,100611.56
2018-07-31T06:01:24.279Z,100614.98
2018-07-31T06:02:27.683Z,100622.41
2018-07-31T06:03:31.151Z,100615.24
2018-07-31T06:04:34.538Z,100621.56
2018-07-31T06:05:37.977Z,100616.84
2018-07-31T06:06:41.386Z,100623.63
2018-07-31T06:07:44.884Z,100626.00
2018-07-31T06:08:48.457Z,100624.77
2018-07-31T06:09:51.961Z,100628.95
2018-07-31T06:10:55.483Z,100620.97
2018-07-31T06:11:59.120Z,100624.31
2018-07-31T06:13:02.523Z,100624.55
2018-07-31T06:14:06.252Z,100625.62
2018-07-31T06:15:09.696Z,100628.48
2018-07-31T06:16:13.116Z,100629.75
2018-07-31T06:17:16.604Z,100622.36
2018-07-31T06:18:20.061Z,100626.75
2018-07-31T06:19:23.456Z,100633.92
2018-07-31T06:20:26.852Z,100632.23
2018-07-31T06:21:30.254Z,100634.17
2018-07-31T06:22:33.706Z,100631.73
2018-07-31T06:23:37.174Z,100635.31
2018-07-31T06:24:40.851Z,100635.77
2018-07-31T06:25:44.220Z,100640.25
2018-07-31T06:26:47.610Z,100641.00
2018-07-31T06:27:51.050Z,100642.60
2018-07-31T06:28:54.471Z,100640.25
2018-07-31T06:29:57.853Z,100644.80
2018-07-31T06:31:01.236Z,100642.23
2018-07-31T06:32:04.692Z,100640.89
2018-07-31T06:33:08.092Z,100655.48
2018-07-31T06:34:11.969Z,100650.34
2018-07-31T06:35:15.389Z,100650.92
2018-07-31T06:36:18.781Z,100649.16
2018-07-31T06:37:22.158Z,100651.43
2018-07-31T06:38:25.580Z,100655.39
2018-07-31T06:39:28.983Z,100655.44
2018-07-31T06:40:32.392Z,100655.06
2018-07-31T06:41:35.748Z,100658.52
2018-07-31T06:42:39.169Z,100653.03
2018-07-31T06:43:42.564Z,100655.87
2018-07-31T06:44:45.963Z,100654.55
2018-07-31T06:45:49.349Z,100660.97
2018-07-31T06:46:52.736Z,100650.47
2018-07-31T06:47:56.104Z,100649.72
2018-07-31T06:48:59.524Z,100650.39
2018-07-31T06:50:02.952Z,100646.63
2018-07-31T06:51:06.321Z,100647.06
2018-07-31T06:52:09.774Z,100651.88
2018-07-31T06:53:13.149Z,100649.72
2018-07-31T06:54:16.568Z,100652.34
2018-07-31T06:55:19.945Z,100648.02
2018-07-31T06:56:23.338Z,100655.62
2018-07-31T06:57:26.786Z,100656.84
2018-07-31T06:58:30.168Z,100657.27
2018-07-31T06:59:33.744Z,100657.48
2018-07-31T07:00:37.138Z,100657.31
2018-07-31T07:01:40.548Z,100659.72
2018-07-31T07:02:43.939Z,100657.31
2018-07-31T07:03:47.448Z,100655.92
2018-07-31T07:04:50.868Z,100657.77
2018-07-31T07:05:54.253Z,100658.12
2018-07-31T07:06:57.654Z,100662.47
2018-07-31T07:08:01.019Z,100659.05
2018-07-31T07:09:06.465Z,100656.47
2018-07-31T07:10:09.935Z,100660.23
2018-07-31T07:11:13.378Z,100658.79
2018-07-31T07:12:16.791Z,100655.37
2018-07-31T07:13:20.444Z,100654.70
2018-07-31T07:14:23.847Z,100656.89
2018-07-31T07:15:27.306Z,100660.34
2018-07-31T07:16:30.704Z,100660.70
2018-07-31T07:17:34.157Z,100654.91
2018-07-31T07:18:37.563Z,100655.92
2018-07-31T07:19:40.964Z,100656.52
2018-07-31T07:20:44.414Z,100656.17
2018-07-31T07:21:47.850Z,100654.83
2018-07-31T07:22:51.267Z,100656.05
2018-07-31T07:23:54.652Z,100656.47
2018-07-31T07:24:58.029Z,100659.64
2018-07-31T07:26:01.457Z,100659.84
2018-07-31T07:27:04.864Z,100660.18
2018-07-31T07:28:08.272Z,100661.58
2018-07-31T07:29:11.709Z,100662.97
2018-07-31T07:30:15.177Z,100660.18
2018-07-31T07:31:18.581Z,100665.97
2018-07-31T07:32:22.231Z,100657.23
2018-07-31T07:33:25.628Z,100663.44
2018-07-31T07:34:29.027Z,100666.64
2018-07-31T07:35:32.475Z,100668.08
2018-07-31T07:36:35.904Z,100661.95
2018-07-31T07:37:39.330Z,100663.17
2018-07-31T07:38:42.720Z,100664.23
2018-07-31T07:39:46.104Z,100660.84
2018-07-31T07:40:49.703Z,100656.74
2018-07-31T07:41:53.085Z,100650.78
2018-07-31T07:42:56.496Z,100645.11
2018-07-31T07:43:59.904Z,100649.50
2018-07-31T07:45:03.353Z,100645.53
2018-07-31T07:46:06.766Z,100643.76
2018-07-31T07:47:10.387Z,100643.38
2018-07-31T07:48:13.810Z,100643.20
2018-07-31T07:49:17.180Z,100638.43
2018-07-31T07:50:20.601Z,100636.06
2018-07-31T07:51:23.988Z,100632.47
2018-07-31T07:52:27.425Z,100634.91
2018-07-31T07:53:30.817Z,100633.13
2018-07-31T07:54:34.192Z,100626.97
2018-07-31T07:55:37.591Z,100629.96
2018-07-31T07:56:40.997Z,100633.55
2018-07-31T07:57:44.402Z,100633.76
2018-07-31T07:58:47.797Z,100635.95
2018-07-31T07:59:51.342Z,100646.13
2018-07-31T08:00:54.823Z,100641.95
2018-07-31T08:01:58.236Z,100646.94
2018-07-31T08:03:01.637Z,100646.34
2018-07-31T08:04:05.231Z,100647.95
2018-07-31T08:05:09.064Z,100647.95
2018-07-31T08:06:12.442Z,100642.58
2018-07-31T08:07:15.841Z,100642.79
2018-07-31T08:08:19.256Z,100645.78
2018-07-31T08:09:22.632Z,100640.20
2018-07-31T08:10:26.050Z,100641.02
2018-07-31T08:11:29.432Z,100643.20
2018-07-31T08:12:32.809Z,100639.02
2018-07-31T08:13:36.197Z,100651.81
2018-07-31T08:14:39.590Z,100637.88
2018-07-31T08:15:42.976Z,100646.23
2018-07-31T08:16:46.442Z,100647.04
2018-07-31T08:17:49.919Z,100644.45
2018-07-31T08:18:53.352Z,100641.67
2018-07-31T08:19:56.835Z,100637.48
2018-07-31T08:21:00.212Z,100638.88
2018-07-31T08:22:03.635Z,100639.68
2018-07-31T08:23:07.062Z,100646.86
2018-07-31T08:24:10.492Z,100646.27
2018-07-31T08:25:13.988Z,100647.88
2018-07-31T08:26:17.379Z,100654.84
2018-07-31T08:27:20.838Z,100654.05
2018-07-31T08:28:24.242Z,100660.04
2018-07-31T08:29:27.816Z,100654.84
2018-07-31T08:30:31.230Z,100652.86
2018-07-31T08:31:34.641Z,100655.64
2018-07-31T08:32:38.053Z,100655.64
2018-07-31T08:33:41.460Z,100665.61
2018-07-31T08:34:44.919Z,100658.05
2018-07-31T08:35:48.348Z,100665.83
2018-07-31T08:36:51.754Z,100658.86
2018-07-31T08:37:55.330Z,100661.05
2018-07-31T08:38:59.448Z,100663.84
2018-07-31T08:40:02.887Z,100663.84
2018-07-31T08:41:06.610Z,100661.84
2018-07-31T08:42:10.052Z,100659.06
2018-07-31T08:43:13.465Z,100656.87
2018-07-31T08:44:16.850Z,100656.27
2018-07-31T08:45:20.307Z,100664.05
2018-07-31T08:46:23.759Z,100658.47
2018-07-31T08:47:27.134Z,100666.45
2018-07-31T08:48:30.569Z,100662.86
2018-07-31T08:49:33.946Z,100662.86
2018-07-31T08:50:37.337Z,100663.66
2018-07-31T08:51:40.829Z,100669.23
2018-07-31T08:52:44.192Z,100670.63
2018-07-31T08:53:47.668Z,100671.44
2018-07-31T08:54:51.068Z,100672.23
2018-07-31T08:55:54.533Z,100671.23
2018-07-31T08:56:58.000Z,100673.63
2018-07-31T08:58:01.359Z,100672.83
2018-07-31T08:59:04.804Z,100674.44
2018-07-31T09:00:09.797Z,100672.23
2018-07-31T09:01:13.221Z,100673.63
2018-07-31T09:02:16.612Z,100677.81
2018-07-31T09:03:20.002Z,100679.42
2018-07-31T09:04:23.423Z,100679.62
2018-07-31T09:05:26.820Z,100682.20
2018-07-31T09:06:30.254Z,100677.22
2018-07-31T09:07:33.665Z,100684.41
2018-07-31T09:08:37.078Z,100682.42
2018-07-31T09:09:40.548Z,100681.02
2018-07-31T09:10:43.936Z,100679.62
2018-07-31T09:11:47.384Z,100681.02
2018-07-31T09:12:50.783Z,100682.42
2018-07-31T09:13:54.162Z,100677.64
2018-07-31T09:14:57.704Z,100680.43
2018-07-31T09:16:01.084Z,100680.43
2018-07-31T09:17:04.512Z,100675.45
2018-07-31T09:18:07.916Z,100682.62
2018-07-31T09:19:11.298Z,100678.44
2018-07-31T09:20:14.692Z,100675.66
2018-07-31T09:21:18.072Z,100681.47
2018-07-31T09:22:21.487Z,100682.06
2018-07-31T09:23:24.896Z,100675.89
2018-07-31T09:24:28.300Z,100677.29
2018-07-31T09:25:36.989Z,100678.69
2018-07-31T09:26:40.392Z,100682.27
2018-07-31T09:27:43.920Z,100673.11
2018-07-31T09:28:47.286Z,100679.84
2018-07-31T09:29:50.672Z,100671.47
2018-07-31T09:30:59.334Z,100677.50
2018-07-31T09:32:02.728Z,100673.31
2018-07-31T09:33:07.204Z,100677.50
2018-07-31T09:34:10.662Z,100676.31
2018-07-31T09:35:14.088Z,100681.30
2018-07-31T09:36:17.476Z,100680.91
2018-07-31T09:37:20.891Z,100674.53
2018-07-31T09:38:24.383Z,100673.94
2018-07-31T09:39:27.772Z,100673.94
2018-07-31T09:40:31.185Z,100676.14
2018-07-31T09:41:34.553Z,100666.97
2018-07-31T09:42:37.953Z,100673.34
2018-07-31T09:43:41.436Z,100668.58
2018-07-31T09:44:44.931Z,100671.95
2018-07-31T09:45:48.340Z,100667.98
2018-07-31T09:46:51.756Z,100671.16
2018-07-31T09:47:55.135Z,100673.34
2018-07-31T09:48:58.547Z,100676.94
2018-07-31T09:50:01.923Z,100680.53
2018-07-31T09:51:05.339Z,100681.13
2018-07-31T09:52:08.751Z,100676.94
2018-07-31T09:53:12.180Z,100678.72
2018-07-31T09:54:15.579Z,100679.73
2018-07-31T09:55:18.983Z,100681.72
2018-07-31T09:56:22.403Z,100676.73
2018-07-31T09:57:26.497Z,100681.13
2018-07-31T09:58:30.105Z,100679.73
2018-07-31T09:59:33.516Z,100676.94
2018-07-31T10:00:42.204Z,100678.55
2018-07-31T10:01:45.579Z,100680.53
2018-07-31T10:02:49.011Z,100689.70
2018-07-31T10:03:52.456Z,100689.11
2018-07-31T10:04:55.921Z,100682.73
2018-07-31T10:05:59.294Z,100687.72
2018-07-31T10:07:02.724Z,100686.91
2018-07-31T10:08:06.745Z,100683.32
2018-07-31T10:09:10.943Z,100681.92
2018-07-31T10:10:14.378Z,100684.92
2018-07-31T10:11:17.796Z,100685.73
2018-07-31T10:12:21.204Z,100683.53
2018-07-31T10:13:24.593Z,100685.52
2018-07-31T10:14:27.976Z,100687.13
2018-07-31T10:15:31.424Z,100684.33
2018-07-31T10:16:34.797Z,100685.94
2018-07-31T10:17:38.185Z,100682.34
2018-07-31T10:18:41.612Z,100678.16
2018-07-31T10:19:44.992Z,100677.56
2018-07-31T10:20:48.377Z,100685.34
2018-07-31T10:21:51.796Z,100689.53
2018-07-31T10:22:55.211Z,100680.03
2018-07-31T10:23:58.592Z,100679.20
2018-07-31T10:25:01.985Z,100688.97
2018-07-31T10:26:05.575Z,100686.77
2018-07-31T10:27:08.971Z,100688.16
2018-07-31T10:28:12.354Z,100688.97
2018-07-31T10:29:15.768Z,100692.59
2018-07-31T10:30:19.173Z,100688.64
2018-07-31T10:31:22.640Z,100690.04
2018-07-31T10:32:26.058Z,100690.04
2018-07-31T10:33:29.465Z,100690.25
2018-07-31T10:34:32.842Z,100683.27
2018-07-31T10:35:36.277Z,100685.68
2018-07-31T10:36:39.720Z,100681.50
2018-07-31T10:37:43.168Z,100687.87
2018-07-31T10:38:46.568Z,100677.52
2018-07-31T10:39:50.018Z,100685.09
2018-07-31T10:40:53.389Z,100690.87
2018-07-31T10:41:56.791Z,100684.11
2018-07-31T10:43:00.160Z,100686.90
2018-07-31T10:44:03.835Z,100688.30
2018-07-31T10:45:07.228Z,100685.50
2018-07-31T10:46:10.756Z,100681.91
2018-07-31T10:47:14.157Z,100689.90
2018-07-31T10:48:17.555Z,100691.30
2018-07-31T10:49:20.944Z,100688.71
2018-07-31T10:50:24.336Z,100686.09
2018-07-31T10:51:27.738Z,100688.50
2018-07-31T10:52:31.149Z,100676.54
2018-07-31T10:53:34.556Z,100684.31
2018-07-31T10:54:37.995Z,100692.89
2018-07-31T10:55:41.616Z,100692.09
2018-07-31T10:56:45.030Z,100690.70
2018-07-31T10:57:48.441Z,100694.30
2018-07-31T10:58:51.813Z,100689.30
2018-07-31T10:59:55.250Z,100697.08
2018-07-31T11:00:58.663Z,100688.71
2018-07-31T11:02:02.067Z,100698.48
2018-07-31T11:03:05.605Z,100691.50
2018-07-31T11:04:08.999Z,100687.73
2018-07-31T11:05:12.388Z,100693.70
2018-07-31T11:06:15.880Z,100687.31
2018-07-31T11:07:19.248Z,100693.91
2018-07-31T11:08:22.650Z,100690.31
2018-07-31T11:09:26.023Z,100694.50
2018-07-31T11:10:29.544Z,100691.92
2018-07-31T11:11:32.874Z,100696.10
2018-07-31T11:12:36.584Z,100694.70
2018-07-31T11:13:40.002Z,100700.28
2018-07-31T11:14:43.437Z,100693.91
2018-07-31T11:15:46.820Z,100691.11
2018-07-31T11:16:50.228Z,100697.29
2018-07-31T11:17:53.690Z,100695.89
2018-07-31T11:18:57.090Z,100702.27
2018-07-31T11:20:00.499Z,100699.48
2018-07-31T11:21:03.949Z,100698.09
2018-07-31T11:22:07.364Z,100703.67
2018-07-31T11:23:10.807Z,100700.88
2018-07-31T11:24:14.196Z,100701.47
2018-07-31T11:25:17.600Z,100700.67
2018-07-31T11:26:21.027Z,100701.47
2018-07-31T11:27:24.516Z,100700.08
2018-07-31T11:28:27.878Z,100697.08
2018-07-31T11:29:31.275Z,100701.68
2018-07-31T11:30:34.670Z,100707.86
2018-07-31T11:31:38.096Z,100706.46
2018-07-31T11:32:41.489Z,100707.27
2018-07-31T11:33:44.888Z,100709.45
2018-07-31T11:34:48.273Z,100704.47
2018-07-31T11:35:51.709Z,100700.28
2018-07-31T11:36:55.140Z,100695.30
2018-07-31T11:37:58.520Z,100703.08
2018-07-31T11:39:01.958Z,100694.70
2018-07-31T11:40:05.478Z,100691.11
2018-07-31T11:41:08.895Z,100696.31
2018-07-31T11:42:12.552Z,100697.50
2018-07-31T11:43:15.946Z,100697.50
2018-07-31T11:44:19.388Z,100700.50
2018-07-31T11:45:22.843Z,100698.30
2018-07-31T11:46:26.272Z,100693.31
2018-07-31T11:47:29.754Z,100696.31
2018-07-31T11:48:33.360Z,100691.33
2018-07-31T11:49:36.772Z,100699.10
2018-07-31T11:50:40.171Z,100701.09
2018-07-31T11:51:43.565Z,100699.10
2018-07-31T11:52:46.966Z,100704.68
2018-07-31T11:53:50.472Z,100707.68
2018-07-31T11:54:54.325Z,100705.48
2018-07-31T11:55:57.761Z,100699.10
2018-07-31T11:57:01.163Z,100704.89
2018-07-31T11:58:04.633Z,100699.91
2018-07-31T11:59:08.115Z,100702.10
2018-07-31T12:00:13.040Z,100695.13
2018-07-31T12:01:16.441Z,100693.94
2018-07-31T12:02:19.880Z,100708.48
2018-07-31T12:03:23.412Z,100700.70
2018-07-31T12:04:26.843Z,100699.31